Detalii statie BARBIERU PROD [00001CE8]

Toti senzorii

Date Temperatura solului [C]Precipitatii [mm]Voltaj baterie [mV]Leaf Wetness [Min]HC Air temperature [C]HC Relative humidity [%]Punctul de roua [C]
medieminmaxsumaultimatimpmedieminmaxmediemediemin
2018-02-23 13:00:00 2.6 2.6 2.7 0 7274 0.37 -0.1 0.67 0 0 0
2018-02-23 14:00:00 2.6 2.5 2.7 1 7274 0.76 0.5 0.99 0 0 0
2018-02-23 15:00:00 2.6 2.4 2.7 0.6 7264 0.49 0.33 0.7 0 0 0
2018-02-23 16:00:00 2.6 2.5 2.7 0.4 7264 0.39 0.26 0.51 0 0 0
2018-02-23 17:00:00 2.6 2.6 2.7 0.2 7128 0.37 0.24 0.46 0 0 0
2018-02-23 18:00:00 2.6 2.6 2.7 0 7010 0.02 -0.14 0.22 0 0 0
2018-02-23 19:00:00 2.7 2.6 2.9 0 6962 -0.15 -0.21 -0.1 0 0 0
2018-02-23 20:00:00 2.6 2.5 2.7 0 6942 -0.16 -0.24 -0.12 0 0 0
2018-02-23 21:00:00 2.6 2.6 2.8 0 6922 -0.32 -0.5 -0.12 0 0 0
2018-02-23 22:00:00 2.6 2.6 2.7 0 6914 -0.47 -0.5 -0.44 0 0 0
2018-02-23 23:00:00 2.6 2.6 2.7 0 6904 -0.5 -0.55 -0.46 0 0 0
2018-02-24 00:00:00 2.6 2.6 2.7 0 6904 -0.46 -0.51 -0.44 0 0 0
2018-02-24 01:00:00 2.6 2.5 2.7 0 6894 -0.55 -0.6 -0.48 0 0 0
2018-02-24 02:00:00 2.6 2.6 2.7 0 6894 -0.58 -0.63 -0.55 0 0 0
2018-02-24 03:00:00 2.6 2.6 2.7 0 6884 -0.57 -0.6 -0.54 0 0 0
2018-02-24 04:00:00 2.6 2.5 2.7 0 6884 -0.64 -0.77 -0.57 0 0 0
2018-02-24 05:00:00 2.5 2.5 2.7 0 6874 -0.68 -0.72 -0.64 0 0 0
2018-02-24 06:00:00 2.5 2.5 2.7 0 6864 -0.59 -0.65 -0.56 0 0 0
2018-02-24 07:00:00 2.5 2.5 2.6 0 6864 -0.57 -0.63 -0.54 0 0 0
2018-02-24 08:00:00 2.5 2.5 2.6 0 6864 -0.47 -0.59 -0.39 0 0 0
2018-02-24 09:00:00 2.5 2.4 2.6 0 6904 -0.53 -0.6 -0.44 0 0 0
2018-02-24 10:00:00 2.5 2.5 2.6 0 6992 -0.69 -0.78 -0.63 0 0 0
2018-02-24 11:00:00 2.5 2.4 2.6 0 7176 -0.63 -0.79 -0.33 0 0 0
2018-02-24 12:00:00 2.5 2.5 2.6 0 7264 0.01 -0.28 0.28 0 0 0
2018-02-24 13:00:00 2.5 2.5 2.6 0 7216 0 -0.13 0.18 0 0 0
2018-02-24 14:00:00 2.5 2.5 2.6 0 7264 -0.4 -0.61 -0.14 0 0 0
2018-02-24 15:00:00 2.6 2.5 2.7 0 7264 -0.83 -1.13 -0.61 0 0 0
2018-02-24 16:00:00 2.5 2.5 2.7 0 7264 -1.4 -1.64 -1.14 0 0 0
2018-02-24 17:00:00 2.5 2.5 2.7 0 7098 -1.95 -2.19 -1.67 0 0 0
2018-02-24 18:00:00 2.5 2.4 2.6 0 6992 -2.78 -3.1 -2.34 0 0 0
2018-02-24 19:00:00 2.5 2.4 2.6 0 6942 -3.33 -3.5 -3.06 0 0 0
2018-02-24 20:00:00 2.5 2.4 2.6 0 6914 -3.7 -3.86 -3.53 0 0 0
2018-02-24 21:00:00 2.5 2.5 2.6 0 6894 -4 -4.09 -3.9 0 0 0
2018-02-24 22:00:00 2.5 2.4 2.7 0 6884 -4.12 -4.17 -4.1 0 0 0
2018-02-24 23:00:00 2.4 2.3 2.7 0 6894 -4.07 -4.16 -4.01 0 0 0
2018-02-25 00:00:00 2.4 2.3 2.5 0 6884 -4.13 -4.17 -4.05 0 0 0
2018-02-25 01:00:00 2.4 2.4 2.5 0 6874 -4.24 -4.45 -4.09 0 0 0
2018-02-25 02:00:00 2.3 2.2 2.5 0 6864 -4.71 -5.05 -4.48 0 0 0
2018-02-25 03:00:00 2.3 2.3 2.4 0 6854 -5.32 -5.57 -5.1 0 0 0
2018-02-25 04:00:00 2.2 2.2 2.4 0 6826 -5.79 -5.98 -5.59 0 0 0
2018-02-25 05:00:00 2.3 2.2 2.4 0 6834 -6.56 -6.83 -6.02 0 0 0
2018-02-25 06:00:00 2.3 2.3 2.4 0 6796 -7.2 -7.41 -6.87 0 0 0
2018-02-25 07:00:00 2.3 2.3 2.4 0 6816 -7.42 -7.46 -7.35 0 0 0
2018-02-25 08:00:00 2.2 2.1 2.3 0 6874 -7.17 -7.3 -7.03 0 0 0
2018-02-25 09:00:00 2.2 2.1 2.3 0 7216 -6.77 -7.03 -6.42 0 0 0
2018-02-25 10:00:00 2.1 2 2.2 0 7274 -5.88 -6.26 -5.47 0 0 0
2018-02-25 11:00:00 2 1.9 2.3 0 7274 -5.12 -5.43 -4.74 0 0 0
2018-02-25 12:00:00 2.1 2 2.3 0 7274 -4.38 -4.92 -3.8 0 0 0